Terminal Aerodrome Forecast
Issued by NWS

Home | Current Version | Previous Version | Text Only | Print | Product List | Glossary Off
Versions: 1 2 3 4 5 6 7 8 9 10 11 12 13 14 15 16 17

973
FTUS43 KTOP 180359 AAB
TAFMHK
TAF AMD
KMHK 180359Z 1804/1824 12005KT P6SM OVC025
     FM180700 13005KT 6SM -SHRA VCTS OVC015CB
     FM181300 17007KT 5SM -SHRA VCTS OVC015CB
     FM181600 18010KT P6SM BKN040=

USA.gov is the U.S. government's official web portal to all federal, state and local government web resources and services.